createdAt,value
2019-01-10T00:00:34.604Z,3.12
2019-01-10T00:03:03.646Z,3.18
2019-01-10T00:05:32.630Z,3.10
2019-01-10T00:08:01.794Z,3.12
2019-01-10T00:10:30.835Z,3.10
2019-01-10T00:12:59.881Z,3.06
2019-01-10T00:15:28.951Z,3.09
2019-01-10T00:17:58.299Z,3.12
2019-01-10T00:20:27.343Z,3.09
2019-01-10T00:22:56.953Z,3.09
2019-01-10T00:25:26.022Z,3.14
2019-01-10T00:27:55.301Z,3.13
2019-01-10T00:30:24.408Z,3.14
2019-01-10T00:32:53.458Z,3.13
2019-01-10T00:35:22.595Z,3.08
2019-01-10T00:37:51.651Z,3.12
2019-01-10T00:40:20.659Z,3.16
2019-01-10T00:42:50.066Z,3.15
2019-01-10T00:45:19.348Z,3.10
2019-01-10T00:47:48.593Z,3.18
2019-01-10T00:50:19.970Z,3.08
2019-01-10T00:52:49.047Z,3.16
2019-01-10T00:55:18.091Z,3.11
2019-01-10T00:57:47.221Z,3.13
2019-01-10T01:00:27.470Z,3.12
2019-01-10T01:02:56.623Z,3.17
2019-01-10T01:05:25.637Z,3.21
2019-01-10T01:07:54.687Z,3.19
2019-01-10T01:10:26.255Z,3.15
2019-01-10T01:12:58.781Z,3.14
2019-01-10T01:15:26.212Z,3.06
2019-01-10T01:17:55.531Z,2.99
2019-01-10T01:20:25.464Z,2.95
2019-01-10T01:22:54.589Z,2.96
2019-01-10T01:25:23.711Z,2.98
2019-01-10T01:27:52.769Z,2.97
2019-01-10T01:30:25.428Z,2.98
2019-01-10T01:32:54.716Z,2.95
2019-01-10T01:35:24.111Z,2.87
2019-01-10T01:37:53.114Z,2.61
2019-01-10T01:40:22.150Z,2.45
2019-01-10T01:42:51.208Z,2.36
2019-01-10T01:45:20.716Z,2.30
2019-01-10T01:47:49.968Z,2.26
2019-01-10T01:50:23.361Z,2.13
2019-01-10T01:52:53.617Z,2.08
2019-01-10T01:55:22.709Z,2.01
2019-01-10T01:57:51.855Z,1.97
2019-01-10T02:00:22.705Z,1.96
2019-01-10T02:02:52.050Z,1.81
2019-01-10T02:05:21.055Z,1.79
2019-01-10T02:07:50.618Z,1.69
2019-01-10T02:10:25.043Z,1.52
2019-01-10T02:12:54.363Z,1.42
2019-01-10T02:15:23.474Z,1.31
2019-01-10T02:17:52.525Z,1.28
2019-01-10T02:20:21.688Z,1.38
2019-01-10T02:22:50.740Z,1.28
2019-01-10T02:25:19.821Z,1.24
2019-01-10T02:27:48.874Z,1.17
2019-01-10T02:30:21.018Z,1.27
2019-01-10T02:32:50.278Z,1.16
2019-01-10T02:35:19.354Z,1.10
2019-01-10T02:37:48.716Z,1.15
2019-01-10T02:40:17.794Z,1.02
2019-01-10T02:42:46.825Z,0.99
2019-01-10T02:45:16.869Z,0.99
2019-01-10T02:47:45.867Z,0.88
2019-01-10T02:50:22.845Z,0.91
2019-01-10T02:52:52.279Z,0.85
2019-01-10T02:55:21.508Z,0.86
2019-01-10T02:57:50.546Z,0.73
2019-01-10T03:00:24.181Z,0.71
2019-01-10T03:02:53.405Z,0.76
2019-01-10T03:05:22.582Z,0.81
2019-01-10T03:07:51.865Z,0.78
2019-01-10T03:10:26.312Z,0.71
2019-01-10T03:12:55.377Z,0.78
2019-01-10T03:15:24.658Z,0.68
2019-01-10T03:17:53.720Z,0.65
2019-01-10T03:20:23.553Z,0.73
2019-01-10T03:22:52.590Z,0.65
2019-01-10T03:25:21.630Z,0.56
2019-01-10T03:27:50.647Z,0.56
2019-01-10T03:30:20.440Z,0.58
2019-01-10T03:32:49.555Z,0.54
2019-01-10T03:35:18.531Z,0.53
2019-01-10T03:37:47.685Z,0.55
2019-01-10T03:40:21.446Z,0.55
2019-01-10T03:42:50.555Z,0.52
2019-01-10T03:45:22.930Z,0.53
2019-01-10T03:47:52.010Z,0.50
2019-01-10T03:50:21.054Z,0.53
2019-01-10T03:52:50.071Z,0.52
2019-01-10T03:55:19.097Z,0.51
2019-01-10T03:57:48.113Z,0.50
2019-01-10T04:00:22.426Z,0.60
2019-01-10T04:02:51.554Z,0.54
2019-01-10T04:05:21.224Z,0.53
2019-01-10T04:07:50.261Z,0.49
2019-01-10T04:10:19.284Z,0.59
2019-01-10T04:12:48.362Z,0.56
2019-01-10T04:15:18.302Z,0.64
2019-01-10T04:17:47.674Z,0.69
2019-01-10T04:20:18.107Z,0.73
2019-01-10T04:22:47.140Z,0.73
2019-01-10T04:25:16.302Z,0.79
2019-01-10T04:27:45.678Z,0.81
2019-01-10T04:30:17.141Z,0.78
2019-01-10T04:32:46.259Z,0.83
2019-01-10T04:35:15.310Z,0.90
2019-01-10T04:37:44.402Z,0.91
2019-01-10T04:40:21.270Z,0.87
2019-01-10T04:42:50.277Z,0.85
2019-01-10T04:45:19.401Z,0.81
2019-01-10T04:47:48.738Z,0.84
2019-01-10T04:50:17.760Z,0.85
2019-01-10T04:52:46.794Z,0.85
2019-01-10T04:55:15.882Z,0.81
2019-01-10T04:57:45.156Z,0.82
2019-01-10T05:00:18.390Z,0.82
2019-01-10T05:02:47.431Z,0.83
2019-01-10T05:05:16.481Z,0.81
2019-01-10T05:07:45.571Z,0.79
2019-01-10T05:10:14.829Z,0.79
2019-01-10T05:12:43.858Z,0.80
2019-01-10T05:15:13.364Z,0.77
2019-01-10T05:17:42.425Z,0.80
2019-01-10T05:20:14.152Z,0.85
2019-01-10T05:22:43.192Z,0.85
2019-01-10T05:25:12.356Z,0.83
2019-01-10T05:27:41.458Z,0.84
2019-01-10T05:30:35.747Z,0.83
2019-01-10T05:33:04.819Z,0.83
2019-01-10T05:35:33.914Z,0.90
2019-01-10T05:38:02.994Z,0.85
2019-01-10T05:40:32.026Z,0.89
2019-01-10T05:43:01.458Z,0.84
2019-01-10T05:45:30.526Z,0.87
2019-01-10T05:47:59.594Z,0.90
2019-01-10T05:50:28.627Z,0.87
2019-01-10T05:52:58.068Z,0.87
2019-01-10T05:55:27.091Z,0.86
2019-01-10T05:57:56.159Z,0.91
2019-01-10T06:00:27.406Z,0.93
2019-01-10T06:02:56.751Z,0.97
2019-01-10T06:05:26.086Z,0.91
2019-01-10T06:07:55.164Z,1.00
2019-01-10T06:10:26.341Z,1.01
2019-01-10T06:12:55.687Z,0.95
2019-01-10T06:15:24.976Z,1.01
2019-01-10T06:17:54.056Z,1.01
2019-01-10T06:20:23.554Z,0.92
2019-01-10T06:22:52.705Z,0.95
2019-01-10T06:25:21.862Z,1.01
2019-01-10T06:27:50.926Z,0.93
2019-01-10T06:30:22.154Z,0.90
2019-01-10T06:32:51.195Z,0.89
2019-01-10T06:35:21.525Z,0.88
2019-01-10T06:37:50.600Z,0.96
2019-01-10T06:40:21.611Z,0.84
2019-01-10T06:42:50.713Z,0.87
2019-01-10T06:45:19.923Z,0.78
2019-01-10T06:47:49.018Z,0.87
2019-01-10T06:50:18.579Z,0.85
2019-01-10T06:52:47.850Z,0.84
2019-01-10T06:55:16.847Z,0.86
2019-01-10T06:57:45.940Z,0.87
2019-01-10T07:00:17.686Z,0.94
2019-01-10T07:02:46.739Z,0.83
2019-01-10T07:05:15.799Z,0.86
2019-01-10T07:07:44.834Z,0.83
2019-01-10T07:10:17.228Z,0.65
2019-01-10T07:12:46.229Z,0.70
2019-01-10T07:15:15.425Z,0.68
2019-01-10T07:17:44.475Z,0.68
2019-01-10T07:20:13.863Z,0.67
2019-01-10T07:22:47.922Z,0.62
2019-01-10T07:25:16.884Z,0.61
2019-01-10T07:27:46.274Z,0.62
2019-01-10T07:30:18.834Z,0.61
2019-01-10T07:32:47.841Z,0.61
2019-01-10T07:35:16.849Z,0.69
2019-01-10T07:37:51.440Z,0.73
2019-01-10T07:40:20.485Z,0.67
2019-01-10T07:42:49.558Z,0.70
2019-01-10T07:45:26.064Z,0.76
2019-01-10T07:47:55.135Z,0.82
2019-01-10T07:50:35.110Z,0.83
2019-01-10T07:53:05.485Z,0.84
2019-01-10T07:55:34.497Z,0.89
2019-01-10T07:58:03.496Z,0.90
2019-01-10T08:00:32.557Z,1.04
2019-01-10T08:03:01.574Z,1.16
2019-01-10T08:05:30.576Z,1.18
2019-01-10T08:07:59.532Z,1.22
2019-01-10T08:10:28.539Z,1.35
2019-01-10T08:12:57.781Z,1.41
2019-01-10T08:15:26.778Z,1.45
2019-01-10T08:17:55.826Z,1.46
2019-01-10T08:20:24.920Z,1.50
2019-01-10T08:22:53.959Z,1.57
2019-01-10T08:25:23.005Z,1.62
2019-01-10T08:27:52.050Z,1.63
2019-01-10T08:30:23.437Z,1.67
2019-01-10T08:32:52.443Z,1.68
2019-01-10T08:35:24.295Z,1.74
2019-01-10T08:37:53.242Z,1.77
2019-01-10T08:40:22.595Z,1.85
2019-01-10T08:42:51.615Z,1.95
2019-01-10T08:45:22.109Z,1.98
2019-01-10T08:47:51.351Z,2.05
2019-01-10T08:50:22.863Z,2.04
2019-01-10T08:52:51.922Z,2.04
2019-01-10T08:55:20.939Z,1.91
2019-01-10T08:57:50.054Z,1.95
2019-01-10T09:00:20.743Z,1.89
2019-01-10T09:02:49.806Z,1.87
2019-01-10T09:05:18.893Z,1.83
2019-01-10T09:07:47.906Z,1.96
2019-01-10T09:10:20.236Z,1.98
2019-01-10T09:12:49.322Z,2.10
2019-01-10T09:15:25.265Z,2.09
2019-01-10T09:17:50.066Z,2.09
2019-01-10T09:20:19.112Z,2.07
2019-01-10T09:22:48.214Z,2.06
2019-01-10T09:25:17.881Z,2.09
2019-01-10T09:27:47.052Z,1.88
2019-01-10T09:30:18.036Z,1.99
2019-01-10T09:32:47.227Z,2.09
2019-01-10T09:35:16.319Z,2.10
2019-01-10T09:37:45.716Z,2.07
2019-01-10T09:40:16.562Z,2.00
2019-01-10T09:42:45.715Z,2.14
2019-01-10T09:45:17.020Z,2.26
2019-01-10T09:47:46.090Z,2.38
2019-01-10T09:50:16.721Z,2.50
2019-01-10T09:52:46.260Z,2.53
2019-01-10T09:55:15.387Z,2.48
2019-01-10T09:57:44.518Z,2.55
2019-01-10T10:00:17.162Z,2.65
2019-01-10T10:02:46.259Z,2.81
2019-01-10T10:05:15.656Z,2.99
2019-01-10T10:07:44.797Z,3.14
2019-01-10T10:10:16.006Z,3.25
2019-01-10T10:12:45.467Z,3.31
2019-01-10T10:15:16.553Z,3.39
2019-01-10T10:17:45.638Z,3.48
2019-01-10T10:20:17.149Z,3.44
2019-01-10T10:22:46.178Z,3.41
2019-01-10T10:25:15.198Z,3.44
2019-01-10T10:27:44.405Z,3.41
2019-01-10T10:30:17.322Z,3.48
2019-01-10T10:32:46.394Z,3.51
2019-01-10T10:35:16.168Z,3.59
2019-01-10T10:37:45.493Z,3.75
2019-01-10T10:40:16.862Z,3.76
2019-01-10T10:42:46.050Z,3.72
2019-01-10T10:45:16.940Z,3.77
2019-01-10T10:47:46.268Z,3.77
2019-01-10T10:50:17.834Z,3.84
2019-01-10T10:52:47.193Z,3.89
2019-01-10T10:55:16.392Z,3.99
2019-01-10T10:57:45.437Z,4.03
2019-01-10T11:00:17.686Z,4.00
2019-01-10T11:02:46.996Z,4.04
2019-01-10T11:05:16.145Z,4.01
2019-01-10T11:07:46.430Z,4.00
2019-01-10T11:10:17.142Z,3.99
2019-01-10T11:12:46.349Z,4.04
2019-01-10T11:15:15.362Z,4.06
2019-01-10T11:17:44.619Z,4.19
2019-01-10T11:20:15.299Z,4.21
2019-01-10T11:22:45.461Z,4.25
2019-01-10T11:25:19.711Z,4.22
2019-01-10T11:27:48.923Z,4.17
2019-01-10T11:30:18.961Z,4.12
2019-01-10T11:32:48.010Z,3.99
2019-01-10T11:35:17.221Z,3.89
2019-01-10T11:37:46.298Z,3.83
2019-01-10T11:40:18.040Z,3.83
2019-01-10T11:42:47.325Z,3.98
2019-01-10T11:45:18.090Z,3.96
2019-01-10T11:47:47.134Z,3.97
2019-01-10T11:50:16.278Z,3.92
2019-01-10T11:52:45.708Z,3.95
2019-01-10T11:55:14.736Z,3.92
2019-01-10T11:57:44.117Z,3.95
2019-01-10T12:00:19.192Z,3.99
2019-01-10T12:02:48.232Z,3.96
2019-01-10T12:05:17.241Z,3.93
2019-01-10T12:07:46.290Z,3.85
2019-01-10T12:10:15.644Z,3.90
2019-01-10T12:12:44.656Z,3.91
2019-01-10T12:15:14.210Z,3.83
2019-01-10T12:17:43.570Z,3.80
2019-01-10T12:20:13.366Z,3.79
2019-01-10T12:22:42.475Z,3.83
2019-01-10T12:25:13.040Z,3.70
2019-01-10T12:27:42.098Z,3.75
2019-01-10T12:30:16.872Z,3.68
2019-01-10T12:32:45.937Z,3.73
2019-01-10T12:35:15.995Z,3.57
2019-01-10T12:37:45.028Z,3.56
2019-01-10T12:40:14.484Z,3.56
2019-01-10T12:42:43.819Z,3.69
2019-01-10T12:45:13.629Z,3.76
2019-01-10T12:47:42.668Z,3.76
2019-01-10T12:50:15.710Z,3.79
2019-01-10T12:52:44.773Z,3.79
2019-01-10T12:55:13.828Z,3.87
2019-01-10T12:57:42.970Z,3.95
2019-01-10T13:00:15.550Z,3.92
2019-01-10T13:02:44.797Z,3.80
2019-01-10T13:05:14.592Z,3.81
2019-01-10T13:07:43.646Z,3.77
2019-01-10T13:10:15.185Z,3.88
2019-01-10T13:12:44.294Z,3.87
2019-01-10T13:15:16.189Z,3.97
2019-01-10T13:17:45.204Z,4.03
2019-01-10T13:20:14.466Z,4.05
2019-01-10T13:22:43.461Z,3.94
2019-01-10T13:25:14.310Z,3.94
2019-01-10T13:27:43.377Z,3.93
2019-01-10T13:30:15.637Z,3.84
2019-01-10T13:32:44.686Z,3.80
2019-01-10T13:35:13.997Z,3.87
2019-01-10T13:37:43.163Z,3.87
2019-01-10T13:40:12.462Z,3.78
2019-01-10T13:42:41.485Z,3.77
2019-01-10T13:45:11.744Z,3.67
2019-01-10T13:47:41.304Z,3.59
2019-01-10T13:50:13.933Z,3.58
2019-01-10T13:52:42.942Z,3.46
2019-01-10T13:55:13.547Z,3.56
2019-01-10T13:57:42.555Z,3.57
2019-01-10T14:00:15.688Z,3.58
2019-01-10T14:02:44.735Z,3.59
2019-01-10T14:05:13.774Z,3.55
2019-01-10T14:07:42.912Z,3.57
2019-01-10T14:10:13.338Z,3.56
2019-01-10T14:12:42.352Z,3.52
2019-01-10T14:15:13.868Z,3.51
2019-01-10T14:17:43.029Z,3.56
2019-01-10T14:20:12.605Z,3.58
2019-01-10T14:22:41.609Z,3.65
2019-01-10T14:25:10.720Z,3.68
2019-01-10T14:27:39.780Z,3.60
2019-01-10T14:30:19.370Z,3.62
2019-01-10T14:32:48.391Z,3.64
2019-01-10T14:35:17.697Z,3.67
2019-01-10T14:37:46.704Z,3.61
2019-01-10T14:40:15.754Z,3.51
2019-01-10T14:42:44.786Z,3.53
2019-01-10T14:45:14.660Z,3.56
2019-01-10T14:47:43.692Z,3.55
2019-01-10T14:50:12.784Z,3.48
2019-01-10T14:52:41.797Z,3.49
2019-01-10T14:55:11.756Z,3.50
2019-01-10T14:57:40.778Z,3.48
2019-01-10T15:00:14.140Z,3.51
2019-01-10T15:02:43.152Z,3.56
2019-01-10T15:05:12.315Z,3.58
2019-01-10T15:07:41.395Z,3.54
2019-01-10T15:10:10.582Z,3.57
2019-01-10T15:12:39.677Z,3.61
2019-01-10T15:15:11.738Z,3.62
2019-01-10T15:17:40.786Z,3.54
2019-01-10T15:20:30.975Z,3.54
2019-01-10T15:23:00.016Z,3.53
2019-01-10T15:25:29.079Z,3.56
2019-01-10T15:27:58.114Z,3.57
2019-01-10T15:30:28.448Z,3.61
2019-01-10T15:32:57.501Z,3.60
2019-01-10T15:35:26.534Z,3.54
2019-01-10T15:37:55.694Z,3.58
2019-01-10T15:40:27.074Z,3.55
2019-01-10T15:42:56.100Z,3.53
2019-01-10T15:45:25.153Z,3.51
2019-01-10T15:47:54.218Z,3.51
2019-01-10T15:50:23.218Z,3.48
2019-01-10T15:52:52.247Z,3.42
2019-01-10T15:55:21.415Z,3.45
2019-01-10T15:57:50.538Z,3.49
2019-01-10T16:00:21.221Z,3.50
2019-01-10T16:02:50.965Z,3.46
2019-01-10T16:05:20.329Z,3.45
2019-01-10T16:07:50.452Z,3.38
2019-01-10T16:10:20.065Z,3.31
2019-01-10T16:12:49.780Z,3.34
2019-01-10T16:15:20.772Z,3.28
2019-01-10T16:17:49.825Z,3.33
2019-01-10T16:20:18.828Z,3.39
2019-01-10T16:22:48.286Z,3.40
2019-01-10T16:25:17.864Z,3.40
2019-01-10T16:27:46.981Z,3.42
2019-01-10T16:30:21.338Z,3.42
2019-01-10T16:32:50.358Z,3.41
2019-01-10T16:35:19.360Z,3.39
2019-01-10T16:37:48.526Z,3.42
2019-01-10T16:40:17.819Z,3.41
2019-01-10T16:42:46.929Z,3.40
2019-01-10T16:45:19.267Z,3.35
2019-01-10T16:47:48.277Z,3.33
2019-01-10T16:50:17.634Z,3.36
2019-01-10T16:52:46.946Z,3.38
2019-01-10T16:55:16.220Z,3.34
2019-01-10T16:57:45.271Z,3.35
2019-01-10T17:00:22.243Z,3.37
2019-01-10T17:02:51.251Z,3.41
2019-01-10T17:05:20.293Z,3.42
2019-01-10T17:07:49.303Z,3.34
2019-01-10T17:10:18.490Z,3.31
2019-01-10T17:12:47.494Z,3.37
2019-01-10T17:15:17.288Z,3.36
2019-01-10T17:17:46.440Z,3.36
2019-01-10T17:20:17.977Z,3.35
2019-01-10T17:22:47.118Z,3.37
2019-01-10T17:25:16.361Z,3.36
2019-01-10T17:27:45.394Z,3.40
2019-01-10T17:30:25.588Z,3.44
2019-01-10T17:32:54.676Z,3.46
2019-01-10T17:35:25.924Z,3.42
2019-01-10T17:37:54.999Z,3.43
2019-01-10T17:40:24.324Z,3.40
2019-01-10T17:42:53.854Z,3.40
2019-01-10T17:45:25.017Z,3.39
2019-01-10T17:47:54.061Z,3.36
2019-01-10T17:50:23.104Z,3.37
2019-01-10T17:52:52.242Z,3.41
2019-01-10T17:55:21.362Z,3.49
2019-01-10T17:57:50.400Z,3.40
2019-01-10T18:00:22.220Z,3.43
2019-01-10T18:02:51.266Z,3.37
2019-01-10T18:05:20.284Z,3.33
2019-01-10T18:07:49.662Z,3.37
2019-01-10T18:10:19.618Z,3.33
2019-01-10T18:12:48.874Z,3.37
2019-01-10T18:15:20.404Z,3.28
2019-01-10T18:17:50.378Z,3.35
2019-01-10T18:20:28.426Z,3.34
2019-01-10T18:22:57.477Z,3.40
2019-01-10T18:25:26.575Z,3.34
2019-01-10T18:27:55.633Z,3.37
2019-01-10T18:30:24.742Z,3.35
2019-01-10T18:32:53.795Z,3.38
2019-01-10T18:35:26.555Z,3.35
2019-01-10T18:37:53.800Z,3.37
2019-01-10T18:40:22.831Z,3.32
2019-01-10T18:42:51.886Z,3.34
2019-01-10T18:45:23.536Z,3.35
2019-01-10T18:47:57.137Z,3.37
2019-01-10T18:50:24.938Z,3.29
2019-01-10T18:52:53.927Z,3.31
2019-01-10T18:55:22.973Z,3.36
2019-01-10T18:57:52.036Z,3.38
2019-01-10T19:00:25.812Z,3.31
2019-01-10T19:02:55.147Z,3.29
2019-01-10T19:05:24.190Z,3.32
2019-01-10T19:07:53.196Z,3.34
2019-01-10T19:10:22.609Z,3.29
2019-01-10T19:12:51.774Z,3.25
2019-01-10T19:15:20.789Z,3.31
2019-01-10T19:17:49.981Z,3.29
2019-01-10T19:20:26.664Z,3.33
2019-01-10T19:22:57.010Z,3.38
2019-01-10T19:25:26.166Z,3.38
2019-01-10T19:27:55.285Z,3.47
2019-01-10T19:30:26.612Z,3.46
2019-01-10T19:32:56.072Z,3.39
2019-01-10T19:35:25.161Z,3.41
2019-01-10T19:37:54.588Z,3.39
2019-01-10T19:40:23.946Z,3.45
2019-01-10T19:42:53.001Z,3.38
2019-01-10T19:45:22.829Z,3.43
2019-01-10T19:47:51.906Z,3.43
2019-01-10T19:50:22.865Z,3.41
2019-01-10T19:52:51.980Z,3.42
2019-01-10T19:55:22.011Z,3.42
2019-01-10T19:57:51.217Z,3.42
2019-01-10T20:00:41.182Z,3.42
2019-01-10T20:03:10.361Z,3.39
2019-01-10T20:05:39.378Z,3.35
2019-01-10T20:08:08.417Z,3.38
2019-01-10T20:10:37.823Z,3.39
2019-01-10T20:13:06.914Z,3.31
2019-01-10T20:15:35.966Z,3.31
2019-01-10T20:18:05.239Z,3.37
2019-01-10T20:20:39.580Z,3.30
2019-01-10T20:23:10.537Z,3.26
2019-01-10T20:25:39.917Z,3.34
2019-01-10T20:28:09.196Z,3.31
2019-01-10T20:30:38.483Z,3.36
2019-01-10T20:33:07.602Z,3.29
2019-01-10T20:35:36.733Z,3.32
2019-01-10T20:38:06.115Z,3.30
2019-01-10T20:40:35.163Z,3.28
2019-01-10T20:43:04.409Z,3.27
2019-01-10T20:45:33.419Z,3.22
2019-01-10T20:48:02.481Z,3.24
2019-01-10T20:50:31.540Z,3.26
2019-01-10T20:53:00.589Z,3.29
2019-01-10T20:55:29.598Z,3.32
2019-01-10T20:57:58.613Z,3.37
2019-01-10T21:00:29.114Z,3.37
2019-01-10T21:02:58.208Z,3.35
2019-01-10T21:05:27.741Z,3.35
2019-01-10T21:07:56.752Z,3.34
2019-01-10T21:10:25.986Z,3.41
2019-01-10T21:12:55.060Z,3.44
2019-01-10T21:15:27.689Z,3.48
2019-01-10T21:17:56.866Z,3.48
2019-01-10T21:20:25.976Z,3.49
2019-01-10T21:22:55.098Z,3.53
2019-01-10T21:25:24.140Z,3.55
2019-01-10T21:27:53.206Z,3.50
2019-01-10T21:30:22.745Z,3.58
2019-01-10T21:32:51.750Z,3.59
2019-01-10T21:35:21.180Z,3.57
2019-01-10T21:37:50.255Z,3.54
2019-01-10T21:40:21.214Z,3.56
2019-01-10T21:42:51.938Z,3.58
2019-01-10T21:45:21.250Z,3.62
2019-01-10T21:47:50.257Z,3.62
2019-01-10T21:50:21.989Z,3.62
2019-01-10T21:52:51.373Z,3.58
2019-01-10T21:55:20.912Z,3.58
2019-01-10T21:57:50.133Z,3.63
2019-01-10T22:00:23.427Z,3.58
2019-01-10T22:02:52.567Z,3.59
2019-01-10T22:05:21.600Z,3.61
2019-01-10T22:07:50.654Z,3.64
2019-01-10T22:10:19.839Z,3.64
2019-01-10T22:12:48.907Z,3.68
2019-01-10T22:15:18.400Z,3.68
2019-01-10T22:17:47.413Z,3.68
2019-01-10T22:20:16.997Z,3.68
2019-01-10T22:22:46.002Z,3.76
2019-01-10T22:25:15.051Z,3.67
2019-01-10T22:27:44.135Z,3.68
2019-01-10T22:30:16.108Z,3.73
2019-01-10T22:32:45.141Z,3.79
2019-01-10T22:35:16.059Z,3.75
2019-01-10T22:37:45.063Z,3.75
2019-01-10T22:40:17.149Z,3.80
2019-01-10T22:42:46.118Z,3.79
2019-01-10T22:45:16.323Z,3.80
2019-01-10T22:47:45.367Z,3.82
2019-01-10T22:50:17.480Z,3.87
2019-01-10T22:52:46.491Z,3.87
2019-01-10T22:55:16.081Z,3.85
2019-01-10T22:57:45.088Z,3.89
2019-01-10T23:01:09.424Z,3.93
2019-01-10T23:03:41.055Z,3.94
2019-01-10T23:06:10.081Z,3.94
2019-01-10T23:08:46.384Z,3.93
2019-01-10T23:11:20.454Z,3.94
2019-01-10T23:13:57.581Z,3.98
2019-01-10T23:16:27.537Z,3.98
2019-01-10T23:18:56.540Z,4.03
2019-01-10T23:21:25.968Z,3.99
2019-01-10T23:24:12.441Z,4.03
2019-01-10T23:26:44.686Z,4.05
2019-01-10T23:29:13.714Z,4.09
2019-01-10T23:31:42.721Z,4.14
2019-01-10T23:34:12.062Z,4.17
2019-01-10T23:36:41.203Z,4.18
2019-01-10T23:39:28.186Z,4.20
2019-01-10T23:41:58.286Z,4.24
2019-01-10T23:44:27.307Z,4.28
2019-01-10T23:46:56.353Z,4.30
2019-01-10T23:49:25.374Z,4.35
2019-01-10T23:51:54.437Z,4.33
2019-01-10T23:54:23.491Z,4.35
2019-01-10T23:56:52.529Z,4.44
2019-01-10T23:59:21.552Z,4.46
